sensor_id;sensor_type;location;lat;lon;timestamp;P1;durP1;ratioP1;P2;durP2;ratioP2
5616;SDS011;2830;50.656;7.568;2024-01-15T00:00:29;10.88;;;6.20;;
5616;SDS011;2830;50.656;7.568;2024-01-15T00:02:56;11.57;;;6.72;;
5616;SDS011;2830;50.656;7.568;2024-01-15T00:05:23;13.27;;;6.32;;
5616;SDS011;2830;50.656;7.568;2024-01-15T00:07:50;11.27;;;7.10;;
5616;SDS011;2830;50.656;7.568;2024-01-15T00:10:17;8.48;;;5.55;;
5616;SDS011;2830;50.656;7.568;2024-01-15T00:12:44;13.13;;;7.05;;
5616;SDS011;2830;50.656;7.568;2024-01-15T00:15:11;10.25;;;6.63;;
5616;SDS011;2830;50.656;7.568;2024-01-15T00:17:38;11.75;;;5.65;;
5616;SDS011;2830;50.656;7.568;2024-01-15T00:20:05;10.32;;;6.60;;
5616;SDS011;2830;50.656;7.568;2024-01-15T00:22:33;13.00;;;6.75;;
5616;SDS011;2830;50.656;7.568;2024-01-15T00:25:02;15.50;;;7.97;;
5616;SDS011;2830;50.656;7.568;2024-01-15T00:27:29;10.32;;;5.40;;
5616;SDS011;2830;50.656;7.568;2024-01-15T00:29:56;17.88;;;6.85;;
5616;SDS011;2830;50.656;7.568;2024-01-15T00:32:23;13.85;;;6.60;;
5616;SDS011;2830;50.656;7.568;2024-01-15T00:34:50;11.85;;;6.45;;
5616;SDS011;2830;50.656;7.568;2024-01-15T00:37:17;9.80;;;5.88;;
5616;SDS011;2830;50.656;7.568;2024-01-15T00:39:44;13.15;;;6.47;;
5616;SDS011;2830;50.656;7.568;2024-01-15T00:42:11;10.73;;;6.53;;
5616;SDS011;2830;50.656;7.568;2024-01-15T00:44:39;10.68;;;5.88;;
5616;SDS011;2830;50.656;7.568;2024-01-15T00:47:05;10.45;;;5.72;;
5616;SDS011;2830;50.656;7.568;2024-01-15T00:49:32;11.48;;;6.28;;
5616;SDS011;2830;50.656;7.568;2024-01-15T00:51:59;13.60;;;6.50;;
5616;SDS011;2830;50.656;7.568;2024-01-15T00:54:26;14.00;;;6.28;;
5616;SDS011;2830;50.656;7.568;2024-01-15T00:56:53;18.67;;;5.65;;
5616;SDS011;2830;50.656;7.568;2024-01-15T00:59:21;8.93;;;6.28;;
5616;SDS011;2830;50.656;7.568;2024-01-15T01:01:48;10.88;;;5.95;;
5616;SDS011;2830;50.656;7.568;2024-01-15T01:04:15;9.07;;;5.55;;
5616;SDS011;2830;50.656;7.568;2024-01-15T01:06:42;11.48;;;5.90;;
5616;SDS011;2830;50.656;7.568;2024-01-15T01:09:09;11.73;;;6.05;;
5616;SDS011;2830;50.656;7.568;2024-01-15T01:11:36;13.20;;;6.88;;
5616;SDS011;2830;50.656;7.568;2024-01-15T01:14:03;12.30;;;5.78;;
5616;SDS011;2830;50.656;7.568;2024-01-15T01:16:30;13.85;;;6.45;;
5616;SDS011;2830;50.656;7.568;2024-01-15T01:18:57;8.20;;;4.78;;
5616;SDS011;2830;50.656;7.568;2024-01-15T01:21:24;15.43;;;6.45;;
5616;SDS011;2830;50.656;7.568;2024-01-15T01:23:51;11.05;;;6.10;;
5616;SDS011;2830;50.656;7.568;2024-01-15T01:26:18;12.25;;;6.25;;
5616;SDS011;2830;50.656;7.568;2024-01-15T01:28:45;14.00;;;6.30;;
5616;SDS011;2830;50.656;7.568;2024-01-15T01:31:12;11.45;;;6.43;;
5616;SDS011;2830;50.656;7.568;2024-01-15T01:33:39;12.85;;;6.68;;
5616;SDS011;2830;50.656;7.568;2024-01-15T01:36:07;13.63;;;6.60;;
5616;SDS011;2830;50.656;7.568;2024-01-15T01:38:36;11.45;;;5.85;;
5616;SDS011;2830;50.656;7.568;2024-01-15T01:41:03;13.48;;;6.97;;
5616;SDS011;2830;50.656;7.568;2024-01-15T01:43:30;14.80;;;6.63;;
5616;SDS011;2830;50.656;7.568;2024-01-15T01:45:57;12.02;;;6.70;;
5616;SDS011;2830;50.656;7.568;2024-01-15T01:48:25;11.77;;;6.20;;
5616;SDS011;2830;50.656;7.568;2024-01-15T01:50:54;11.48;;;6.30;;
5616;SDS011;2830;50.656;7.568;2024-01-15T01:53:24;11.70;;;5.90;;
5616;SDS011;2830;50.656;7.568;2024-01-15T01:55:53;10.52;;;5.57;;
5616;SDS011;2830;50.656;7.568;2024-01-15T01:58:20;13.63;;;5.47;;
5616;SDS011;2830;50.656;7.568;2024-01-15T02:00:47;13.07;;;6.40;;
5616;SDS011;2830;50.656;7.568;2024-01-15T02:03:15;11.23;;;6.50;;
5616;SDS011;2830;50.656;7.568;2024-01-15T02:05:43;12.18;;;6.80;;
5616;SDS011;2830;50.656;7.568;2024-01-15T02:08:13;12.70;;;6.82;;
5616;SDS011;2830;50.656;7.568;2024-01-15T02:10:39;9.18;;;5.70;;
5616;SDS011;2830;50.656;7.568;2024-01-15T02:13:06;13.20;;;7.32;;
5616;SDS011;2830;50.656;7.568;2024-01-15T02:15:33;10.88;;;7.43;;
5616;SDS011;2830;50.656;7.568;2024-01-15T02:18:01;12.65;;;7.00;;
5616;SDS011;2830;50.656;7.568;2024-01-15T02:20:29;13.70;;;7.95;;
5616;SDS011;2830;50.656;7.568;2024-01-15T02:25:43;15.25;;;8.07;;
5616;SDS011;2830;50.656;7.568;2024-01-15T02:28:12;15.20;;;7.38;;
5616;SDS011;2830;50.656;7.568;2024-01-15T02:30:40;13.30;;;6.65;;
5616;SDS011;2830;50.656;7.568;2024-01-15T02:33:09;16.33;;;7.60;;
5616;SDS011;2830;50.656;7.568;2024-01-15T02:35:37;15.38;;;6.40;;
5616;SDS011;2830;50.656;7.568;2024-01-15T02:38:04;13.15;;;6.40;;
5616;SDS011;2830;50.656;7.568;2024-01-15T02:40:32;14.85;;;6.82;;
5616;SDS011;2830;50.656;7.568;2024-01-15T02:42:59;11.35;;;7.07;;
5616;SDS011;2830;50.656;7.568;2024-01-15T02:45:26;13.73;;;6.85;;
5616;SDS011;2830;50.656;7.568;2024-01-15T02:47:53;18.65;;;8.55;;
5616;SDS011;2830;50.656;7.568;2024-01-15T02:50:20;14.73;;;7.32;;
5616;SDS011;2830;50.656;7.568;2024-01-15T02:52:47;11.93;;;6.68;;
5616;SDS011;2830;50.656;7.568;2024-01-15T02:55:14;18.08;;;7.50;;
5616;SDS011;2830;50.656;7.568;2024-01-15T02:57:41;11.65;;;6.45;;
5616;SDS011;2830;50.656;7.568;2024-01-15T03:00:09;19.23;;;8.40;;
5616;SDS011;2830;50.656;7.568;2024-01-15T03:02:36;17.00;;;7.75;;
5616;SDS011;2830;50.656;7.568;2024-01-15T03:05:08;17.55;;;8.75;;
5616;SDS011;2830;50.656;7.568;2024-01-15T03:07:36;20.67;;;8.43;;
5616;SDS011;2830;50.656;7.568;2024-01-15T03:10:03;15.70;;;8.40;;
5616;SDS011;2830;50.656;7.568;2024-01-15T03:12:32;15.93;;;7.93;;
5616;SDS011;2830;50.656;7.568;2024-01-15T03:14:59;18.13;;;8.35;;
5616;SDS011;2830;50.656;7.568;2024-01-15T03:17:26;19.30;;;9.70;;
5616;SDS011;2830;50.656;7.568;2024-01-15T03:19:53;17.10;;;8.45;;
5616;SDS011;2830;50.656;7.568;2024-01-15T03:22:20;17.52;;;7.95;;
5616;SDS011;2830;50.656;7.568;2024-01-15T03:24:47;17.42;;;8.38;;
5616;SDS011;2830;50.656;7.568;2024-01-15T03:27:14;14.00;;;8.88;;
5616;SDS011;2830;50.656;7.568;2024-01-15T03:29:41;15.93;;;8.35;;
5616;SDS011;2830;50.656;7.568;2024-01-15T03:32:08;17.42;;;8.60;;
5616;SDS011;2830;50.656;7.568;2024-01-15T03:34:35;16.42;;;8.27;;
5616;SDS011;2830;50.656;7.568;2024-01-15T03:37:02;18.70;;;9.77;;
5616;SDS011;2830;50.656;7.568;2024-01-15T03:39:29;15.05;;;8.52;;
5616;SDS011;2830;50.656;7.568;2024-01-15T03:41:57;18.83;;;8.90;;
5616;SDS011;2830;50.656;7.568;2024-01-15T03:44:24;17.40;;;9.13;;
5616;SDS011;2830;50.656;7.568;2024-01-15T03:46:51;18.70;;;9.85;;
5616;SDS011;2830;50.656;7.568;2024-01-15T03:49:18;17.30;;;10.13;;
5616;SDS011;2830;50.656;7.568;2024-01-15T03:51:45;14.70;;;8.13;;
5616;SDS011;2830;50.656;7.568;2024-01-15T03:54:12;14.68;;;8.82;;
5616;SDS011;2830;50.656;7.568;2024-01-15T03:56:39;16.55;;;8.63;;
5616;SDS011;2830;50.656;7.568;2024-01-15T03:59:06;17.13;;;8.65;;
5616;SDS011;2830;50.656;7.568;2024-01-15T04:01:32;15.02;;;7.82;;
5616;SDS011;2830;50.656;7.568;2024-01-15T04:03:59;16.75;;;8.80;;
5616;SDS011;2830;50.656;7.568;2024-01-15T04:06:26;14.52;;;8.32;;
5616;SDS011;2830;50.656;7.568;2024-01-15T04:08:53;11.25;;;7.43;;
5616;SDS011;2830;50.656;7.568;2024-01-15T04:11:20;15.95;;;8.40;;
5616;SDS011;2830;50.656;7.568;2024-01-15T04:13:48;19.08;;;10.07;;
5616;SDS011;2830;50.656;7.568;2024-01-15T04:16:15;26.88;;;14.38;;
5616;SDS011;2830;50.656;7.568;2024-01-15T04:18:42;15.90;;;8.23;;
5616;SDS011;2830;50.656;7.568;2024-01-15T04:21:09;12.75;;;7.57;;
5616;SDS011;2830;50.656;7.568;2024-01-15T04:23:36;13.52;;;7.28;;
5616;SDS011;2830;50.656;7.568;2024-01-15T04:26:03;13.32;;;7.65;;
5616;SDS011;2830;50.656;7.568;2024-01-15T04:28:30;16.08;;;8.15;;
5616;SDS011;2830;50.656;7.568;2024-01-15T04:30:57;14.65;;;8.25;;
5616;SDS011;2830;50.656;7.568;2024-01-15T04:33:24;16.48;;;8.98;;
5616;SDS011;2830;50.656;7.568;2024-01-15T04:35:51;15.18;;;8.35;;
5616;SDS011;2830;50.656;7.568;2024-01-15T04:38:18;16.50;;;7.78;;
5616;SDS011;2830;50.656;7.568;2024-01-15T04:40:44;11.80;;;7.47;;
5616;SDS011;2830;50.656;7.568;2024-01-15T04:43:11;14.40;;;8.43;;
5616;SDS011;2830;50.656;7.568;2024-01-15T04:45:38;14.45;;;7.43;;
5616;SDS011;2830;50.656;7.568;2024-01-15T04:48:05;17.35;;;8.95;;
5616;SDS011;2830;50.656;7.568;2024-01-15T04:50:32;13.02;;;7.05;;
5616;SDS011;2830;50.656;7.568;2024-01-15T04:52:59;11.40;;;9.15;;
5616;SDS011;2830;50.656;7.568;2024-01-15T04:55:26;14.40;;;7.82;;
5616;SDS011;2830;50.656;7.568;2024-01-15T04:57:53;15.18;;;7.57;;
5616;SDS011;2830;50.656;7.568;2024-01-15T05:00:20;14.00;;;7.68;;
5616;SDS011;2830;50.656;7.568;2024-01-15T05:02:47;14.25;;;7.55;;
5616;SDS011;2830;50.656;7.568;2024-01-15T05:05:14;16.23;;;7.65;;
5616;SDS011;2830;50.656;7.568;2024-01-15T05:07:41;17.50;;;7.55;;
5616;SDS011;2830;50.656;7.568;2024-01-15T05:10:08;11.50;;;7.43;;
5616;SDS011;2830;50.656;7.568;2024-01-15T05:12:35;10.55;;;6.80;;
5616;SDS011;2830;50.656;7.568;2024-01-15T05:15:03;14.70;;;7.85;;
5616;SDS011;2830;50.656;7.568;2024-01-15T05:17:30;16.73;;;7.88;;
5616;SDS011;2830;50.656;7.568;2024-01-15T05:19:57;12.63;;;7.70;;
5616;SDS011;2830;50.656;7.568;2024-01-15T05:22:24;11.75;;;6.68;;
5616;SDS011;2830;50.656;7.568;2024-01-15T05:24:51;14.75;;;7.15;;
5616;SDS011;2830;50.656;7.568;2024-01-15T05:27:18;22.35;;;11.27;;
5616;SDS011;2830;50.656;7.568;2024-01-15T05:29:47;14.30;;;7.50;;
5616;SDS011;2830;50.656;7.568;2024-01-15T05:32:14;15.90;;;6.45;;
5616;SDS011;2830;50.656;7.568;2024-01-15T05:34:41;11.48;;;6.53;;
5616;SDS011;2830;50.656;7.568;2024-01-15T05:37:08;14.27;;;8.00;;
5616;SDS011;2830;50.656;7.568;2024-01-15T05:39:35;10.95;;;6.40;;
5616;SDS011;2830;50.656;7.568;2024-01-15T05:42:02;11.63;;;6.05;;
5616;SDS011;2830;50.656;7.568;2024-01-15T05:44:29;13.80;;;7.03;;
5616;SDS011;2830;50.656;7.568;2024-01-15T05:46:56;12.48;;;6.20;;
5616;SDS011;2830;50.656;7.568;2024-01-15T05:49:22;12.90;;;6.43;;
5616;SDS011;2830;50.656;7.568;2024-01-15T05:51:49;14.05;;;7.25;;
5616;SDS011;2830;50.656;7.568;2024-01-15T05:54:20;10.00;;;6.03;;
5616;SDS011;2830;50.656;7.568;2024-01-15T05:56:47;9.70;;;6.57;;
5616;SDS011;2830;50.656;7.568;2024-01-15T05:59:14;10.57;;;5.93;;
5616;SDS011;2830;50.656;7.568;2024-01-15T06:01:41;15.55;;;7.97;;
5616;SDS011;2830;50.656;7.568;2024-01-15T06:04:08;11.73;;;5.80;;
5616;SDS011;2830;50.656;7.568;2024-01-15T06:06:35;10.82;;;5.95;;
5616;SDS011;2830;50.656;7.568;2024-01-15T06:09:02;11.45;;;6.38;;
5616;SDS011;2830;50.656;7.568;2024-01-15T06:11:32;15.07;;;6.20;;
5616;SDS011;2830;50.656;7.568;2024-01-15T06:13:59;19.75;;;7.70;;
5616;SDS011;2830;50.656;7.568;2024-01-15T06:16:26;11.05;;;6.38;;
5616;SDS011;2830;50.656;7.568;2024-01-15T06:18:54;9.98;;;6.28;;
5616;SDS011;2830;50.656;7.568;2024-01-15T06:21:21;13.45;;;7.18;;
5616;SDS011;2830;50.656;7.568;2024-01-15T06:23:48;15.98;;;7.25;;
5616;SDS011;2830;50.656;7.568;2024-01-15T06:26:15;10.02;;;6.10;;
5616;SDS011;2830;50.656;7.568;2024-01-15T06:28:42;12.18;;;5.78;;
5616;SDS011;2830;50.656;7.568;2024-01-15T06:31:09;13.80;;;9.50;;
5616;SDS011;2830;50.656;7.568;2024-01-15T06:33:40;13.75;;;6.43;;
5616;SDS011;2830;50.656;7.568;2024-01-15T06:36:15;11.77;;;6.32;;
5616;SDS011;2830;50.656;7.568;2024-01-15T06:38:45;12.65;;;5.88;;
5616;SDS011;2830;50.656;7.568;2024-01-15T06:41:12;15.80;;;8.50;;
5616;SDS011;2830;50.656;7.568;2024-01-15T06:43:39;15.48;;;6.65;;
5616;SDS011;2830;50.656;7.568;2024-01-15T06:46:06;15.07;;;8.05;;
5616;SDS011;2830;50.656;7.568;2024-01-15T06:48:34;10.65;;;5.75;;
5616;SDS011;2830;50.656;7.568;2024-01-15T06:51:01;11.80;;;6.60;;
5616;SDS011;2830;50.656;7.568;2024-01-15T06:53:28;10.38;;;6.10;;
5616;SDS011;2830;50.656;7.568;2024-01-15T06:55:55;10.23;;;6.05;;
5616;SDS011;2830;50.656;7.568;2024-01-15T06:58:22;12.40;;;7.80;;
5616;SDS011;2830;50.656;7.568;2024-01-15T07:00:49;10.00;;;6.60;;
5616;SDS011;2830;50.656;7.568;2024-01-15T07:03:16;9.88;;;6.50;;
5616;SDS011;2830;50.656;7.568;2024-01-15T07:05:43;8.75;;;5.57;;
5616;SDS011;2830;50.656;7.568;2024-01-15T07:08:10;10.68;;;6.28;;
5616;SDS011;2830;50.656;7.568;2024-01-15T07:10:37;12.27;;;7.20;;
5616;SDS011;2830;50.656;7.568;2024-01-15T07:13:04;14.18;;;10.07;;
5616;SDS011;2830;50.656;7.568;2024-01-15T07:15:31;11.63;;;6.05;;
5616;SDS011;2830;50.656;7.568;2024-01-15T07:17:59;10.45;;;6.05;;
5616;SDS011;2830;50.656;7.568;2024-01-15T07:20:26;11.50;;;5.43;;
5616;SDS011;2830;50.656;7.568;2024-01-15T07:22:53;9.23;;;5.15;;
5616;SDS011;2830;50.656;7.568;2024-01-15T07:25:20;10.15;;;6.55;;
5616;SDS011;2830;50.656;7.568;2024-01-15T07:27:47;12.35;;;6.93;;
5616;SDS011;2830;50.656;7.568;2024-01-15T07:30:14;16.42;;;6.45;;
5616;SDS011;2830;50.656;7.568;2024-01-15T07:32:41;11.60;;;5.90;;
5616;SDS011;2830;50.656;7.568;2024-01-15T07:35:08;11.27;;;5.85;;
5616;SDS011;2830;50.656;7.568;2024-01-15T07:37:36;12.68;;;7.03;;
5616;SDS011;2830;50.656;7.568;2024-01-15T07:40:04;13.10;;;7.40;;
5616;SDS011;2830;50.656;7.568;2024-01-15T07:42:33;12.45;;;6.53;;
5616;SDS011;2830;50.656;7.568;2024-01-15T07:45:00;10.07;;;6.30;;
5616;SDS011;2830;50.656;7.568;2024-01-15T07:47:27;17.88;;;10.70;;
5616;SDS011;2830;50.656;7.568;2024-01-15T07:49:54;9.95;;;6.97;;
5616;SDS011;2830;50.656;7.568;2024-01-15T07:52:25;12.70;;;6.80;;
5616;SDS011;2830;50.656;7.568;2024-01-15T07:54:52;13.20;;;6.13;;
5616;SDS011;2830;50.656;7.568;2024-01-15T07:57:20;16.27;;;6.60;;
5616;SDS011;2830;50.656;7.568;2024-01-15T07:59:47;12.73;;;6.82;;
5616;SDS011;2830;50.656;7.568;2024-01-15T08:02:14;8.98;;;6.18;;
5616;SDS011;2830;50.656;7.568;2024-01-15T08:04:41;13.68;;;9.00;;
5616;SDS011;2830;50.656;7.568;2024-01-15T08:07:08;13.02;;;6.40;;
5616;SDS011;2830;50.656;7.568;2024-01-15T08:09:35;12.70;;;6.78;;
5616;SDS011;2830;50.656;7.568;2024-01-15T08:12:03;12.25;;;5.68;;
5616;SDS011;2830;50.656;7.568;2024-01-15T08:14:32;15.18;;;6.50;;
5616;SDS011;2830;50.656;7.568;2024-01-15T08:16:59;10.13;;;6.72;;
5616;SDS011;2830;50.656;7.568;2024-01-15T08:19:26;17.75;;;10.00;;
5616;SDS011;2830;50.656;7.568;2024-01-15T08:21:53;16.23;;;8.32;;
5616;SDS011;2830;50.656;7.568;2024-01-15T08:24:21;36.67;;;18.65;;
5616;SDS011;2830;50.656;7.568;2024-01-15T08:26:47;15.48;;;8.75;;
5616;SDS011;2830;50.656;7.568;2024-01-15T08:29:14;30.27;;;14.90;;
5616;SDS011;2830;50.656;7.568;2024-01-15T08:31:42;85.70;;;39.90;;
5616;SDS011;2830;50.656;7.568;2024-01-15T08:34:09;33.33;;;19.95;;
5616;SDS011;2830;50.656;7.568;2024-01-15T08:36:36;19.77;;;10.75;;
5616;SDS011;2830;50.656;7.568;2024-01-15T08:39:03;13.50;;;8.18;;
5616;SDS011;2830;50.656;7.568;2024-01-15T08:41:31;17.55;;;10.27;;
5616;SDS011;2830;50.656;7.568;2024-01-15T08:43:59;13.50;;;7.43;;
5616;SDS011;2830;50.656;7.568;2024-01-15T08:46:26;12.05;;;6.78;;
5616;SDS011;2830;50.656;7.568;2024-01-15T08:48:53;16.75;;;8.55;;
5616;SDS011;2830;50.656;7.568;2024-01-15T08:51:19;13.75;;;7.25;;
5616;SDS011;2830;50.656;7.568;2024-01-15T08:53:46;17.83;;;7.80;;
5616;SDS011;2830;50.656;7.568;2024-01-15T08:56:14;10.50;;;6.38;;
5616;SDS011;2830;50.656;7.568;2024-01-15T08:58:40;22.15;;;7.40;;
5616;SDS011;2830;50.656;7.568;2024-01-15T09:01:07;11.80;;;6.00;;
5616;SDS011;2830;50.656;7.568;2024-01-15T09:03:35;39.25;;;18.80;;
5616;SDS011;2830;50.656;7.568;2024-01-15T09:06:03;11.32;;;7.35;;
5616;SDS011;2830;50.656;7.568;2024-01-15T09:08:30;17.27;;;6.75;;
5616;SDS011;2830;50.656;7.568;2024-01-15T09:10:57;10.43;;;6.00;;
5616;SDS011;2830;50.656;7.568;2024-01-15T09:13:24;9.68;;;5.15;;
5616;SDS011;2830;50.656;7.568;2024-01-15T09:15:51;10.07;;;6.57;;
5616;SDS011;2830;50.656;7.568;2024-01-15T09:18:19;20.63;;;8.45;;
5616;SDS011;2830;50.656;7.568;2024-01-15T09:20:46;11.73;;;7.18;;
5616;SDS011;2830;50.656;7.568;2024-01-15T09:23:13;14.27;;;6.50;;
5616;SDS011;2830;50.656;7.568;2024-01-15T09:25:40;9.07;;;5.65;;
5616;SDS011;2830;50.656;7.568;2024-01-15T09:28:06;7.05;;;4.55;;
5616;SDS011;2830;50.656;7.568;2024-01-15T09:30:34;13.18;;;5.45;;
5616;SDS011;2830;50.656;7.568;2024-01-15T09:33:01;9.25;;;6.03;;
5616;SDS011;2830;50.656;7.568;2024-01-15T09:35:28;10.00;;;4.88;;
5616;SDS011;2830;50.656;7.568;2024-01-15T09:37:55;8.77;;;5.38;;
5616;SDS011;2830;50.656;7.568;2024-01-15T09:40:22;11.73;;;5.35;;
5616;SDS011;2830;50.656;7.568;2024-01-15T09:42:51;10.88;;;5.30;;
5616;SDS011;2830;50.656;7.568;2024-01-15T09:45:18;8.45;;;5.28;;
5616;SDS011;2830;50.656;7.568;2024-01-15T09:47:45;13.32;;;5.88;;
5616;SDS011;2830;50.656;7.568;2024-01-15T09:50:13;8.35;;;4.70;;
5616;SDS011;2830;50.656;7.568;2024-01-15T09:52:42;8.82;;;4.75;;
5616;SDS011;2830;50.656;7.568;2024-01-15T09:55:11;8.07;;;4.95;;
5616;SDS011;2830;50.656;7.568;2024-01-15T09:57:39;14.15;;;6.78;;
5616;SDS011;2830;50.656;7.568;2024-01-15T10:00:06;14.52;;;6.00;;
5616;SDS011;2830;50.656;7.568;2024-01-15T10:02:37;12.20;;;6.55;;
5616;SDS011;2830;50.656;7.568;2024-01-15T10:05:04;9.25;;;5.65;;
5616;SDS011;2830;50.656;7.568;2024-01-15T10:07:31;14.35;;;7.57;;
5616;SDS011;2830;50.656;7.568;2024-01-15T10:10:02;35.58;;;15.38;;
5616;SDS011;2830;50.656;7.568;2024-01-15T10:12:30;13.50;;;5.65;;
5616;SDS011;2830;50.656;7.568;2024-01-15T10:14:57;7.72;;;4.68;;
5616;SDS011;2830;50.656;7.568;2024-01-15T10:17:24;8.07;;;4.50;;
5616;SDS011;2830;50.656;7.568;2024-01-15T10:19:54;10.50;;;4.90;;
5616;SDS011;2830;50.656;7.568;2024-01-15T10:22:21;7.32;;;4.32;;
5616;SDS011;2830;50.656;7.568;2024-01-15T10:24:48;7.10;;;4.22;;
5616;SDS011;2830;50.656;7.568;2024-01-15T10:27:15;7.65;;;4.22;;
5616;SDS011;2830;50.656;7.568;2024-01-15T10:29:42;8.15;;;4.65;;
5616;SDS011;2830;50.656;7.568;2024-01-15T10:32:10;6.47;;;3.70;;
5616;SDS011;2830;50.656;7.568;2024-01-15T10:34:38;12.85;;;6.45;;
5616;SDS011;2830;50.656;7.568;2024-01-15T10:37:07;9.43;;;5.72;;
5616;SDS011;2830;50.656;7.568;2024-01-15T10:39:35;8.85;;;5.50;;
5616;SDS011;2830;50.656;7.568;2024-01-15T10:42:03;7.85;;;4.55;;
5616;SDS011;2830;50.656;7.568;2024-01-15T10:44:30;8.95;;;4.75;;
5616;SDS011;2830;50.656;7.568;2024-01-15T10:46:57;7.57;;;4.32;;
5616;SDS011;2830;50.656;7.568;2024-01-15T10:49:24;7.78;;;5.05;;
5616;SDS011;2830;50.656;7.568;2024-01-15T10:52:00;4.93;;;3.33;;
5616;SDS011;2830;50.656;7.568;2024-01-15T10:54:28;6.53;;;4.60;;
5616;SDS011;2830;50.656;7.568;2024-01-15T10:56:56;5.30;;;4.20;;
5616;SDS011;2830;50.656;7.568;2024-01-15T10:59:24;5.28;;;3.25;;
5616;SDS011;2830;50.656;7.568;2024-01-15T11:01:51;16.05;;;7.78;;
5616;SDS011;2830;50.656;7.568;2024-01-15T11:04:22;7.03;;;4.93;;
5616;SDS011;2830;50.656;7.568;2024-01-15T11:06:53;6.60;;;3.35;;
5616;SDS011;2830;50.656;7.568;2024-01-15T11:09:25;5.78;;;3.72;;
5616;SDS011;2830;50.656;7.568;2024-01-15T11:11:53;7.68;;;4.93;;
5616;SDS011;2830;50.656;7.568;2024-01-15T11:15:01;4.95;;;3.70;;
5616;SDS011;2830;50.656;7.568;2024-01-15T11:17:27;6.63;;;4.68;;
5616;SDS011;2830;50.656;7.568;2024-01-15T11:20:25;5.63;;;3.70;;
5616;SDS011;2830;50.656;7.568;2024-01-15T11:22:52;6.53;;;4.70;;
5616;SDS011;2830;50.656;7.568;2024-01-15T11:25:19;6.10;;;4.20;;
5616;SDS011;2830;50.656;7.568;2024-01-15T11:27:47;4.13;;;3.63;;
5616;SDS011;2830;50.656;7.568;2024-01-15T11:30:19;4.93;;;3.70;;
5616;SDS011;2830;50.656;7.568;2024-01-15T11:32:50;4.05;;;3.15;;
5616;SDS011;2830;50.656;7.568;2024-01-15T11:35:17;4.93;;;3.25;;
5616;SDS011;2830;50.656;7.568;2024-01-15T11:43:05;6.47;;;4.07;;
5616;SDS011;2830;50.656;7.568;2024-01-15T11:45:36;5.35;;;3.33;;
5616;SDS011;2830;50.656;7.568;2024-01-15T11:48:11;5.25;;;3.00;;
5616;SDS011;2830;50.656;7.568;2024-01-15T11:50:43;3.60;;;2.97;;
5616;SDS011;2830;50.656;7.568;2024-01-15T11:53:17;5.45;;;2.50;;
5616;SDS011;2830;50.656;7.568;2024-01-15T11:55:53;3.50;;;2.63;;
5616;SDS011;2830;50.656;7.568;2024-01-15T11:58:24;8.65;;;5.57;;
5616;SDS011;2830;50.656;7.568;2024-01-15T12:00:52;5.85;;;4.13;;
5616;SDS011;2830;50.656;7.568;2024-01-15T12:03:20;3.97;;;3.00;;
5616;SDS011;2830;50.656;7.568;2024-01-15T12:05:49;3.67;;;3.20;;
5616;SDS011;2830;50.656;7.568;2024-01-15T12:08:20;4.45;;;2.85;;
5616;SDS011;2830;50.656;7.568;2024-01-15T12:10:48;4.00;;;3.58;;
5616;SDS011;2830;50.656;7.568;2024-01-15T12:13:15;3.72;;;3.10;;
5616;SDS011;2830;50.656;7.568;2024-01-15T12:15:45;6.15;;;4.22;;
5616;SDS011;2830;50.656;7.568;2024-01-15T12:18:14;12.90;;;8.43;;
5616;SDS011;2830;50.656;7.568;2024-01-15T12:20:43;6.15;;;5.10;;
5616;SDS011;2830;50.656;7.568;2024-01-15T12:23:13;6.80;;;4.57;;
5616;SDS011;2830;50.656;7.568;2024-01-15T12:25:40;8.77;;;5.10;;
5616;SDS011;2830;50.656;7.568;2024-01-15T12:28:08;5.22;;;4.53;;
5616;SDS011;2830;50.656;7.568;2024-01-15T12:30:35;6.93;;;5.38;;
5616;SDS011;2830;50.656;7.568;2024-01-15T12:33:04;6.70;;;4.63;;
5616;SDS011;2830;50.656;7.568;2024-01-15T12:35:32;6.28;;;4.25;;
5616;SDS011;2830;50.656;7.568;2024-01-15T12:38:00;7.25;;;4.57;;
5616;SDS011;2830;50.656;7.568;2024-01-15T12:40:32;7.03;;;4.72;;
5616;SDS011;2830;50.656;7.568;2024-01-15T12:43:01;8.02;;;5.20;;
5616;SDS011;2830;50.656;7.568;2024-01-15T12:45:29;5.93;;;4.22;;
5616;SDS011;2830;50.656;7.568;2024-01-15T12:47:56;5.72;;;4.38;;
5616;SDS011;2830;50.656;7.568;2024-01-15T12:50:24;10.07;;;4.90;;
5616;SDS011;2830;50.656;7.568;2024-01-15T12:52:54;7.22;;;5.15;;
5616;SDS011;2830;50.656;7.568;2024-01-15T12:55:21;10.30;;;4.70;;
5616;SDS011;2830;50.656;7.568;2024-01-15T12:57:49;6.25;;;5.00;;
5616;SDS011;2830;50.656;7.568;2024-01-15T13:00:19;12.25;;;6.30;;
5616;SDS011;2830;50.656;7.568;2024-01-15T13:02:46;9.85;;;5.20;;
5616;SDS011;2830;50.656;7.568;2024-01-15T13:05:13;8.48;;;5.45;;
5616;SDS011;2830;50.656;7.568;2024-01-15T13:07:43;10.65;;;6.15;;
5616;SDS011;2830;50.656;7.568;2024-01-15T13:10:10;8.27;;;4.68;;
5616;SDS011;2830;50.656;7.568;2024-01-15T13:12:38;7.05;;;4.70;;
5616;SDS011;2830;50.656;7.568;2024-01-15T13:15:06;8.63;;;4.88;;
5616;SDS011;2830;50.656;7.568;2024-01-15T13:17:39;8.10;;;4.82;;
5616;SDS011;2830;50.656;7.568;2024-01-15T13:20:07;14.73;;;4.70;;
5616;SDS011;2830;50.656;7.568;2024-01-15T13:22:35;6.75;;;4.70;;
5616;SDS011;2830;50.656;7.568;2024-01-15T13:25:05;9.30;;;3.60;;
5616;SDS011;2830;50.656;7.568;2024-01-15T13:27:34;8.27;;;5.63;;
5616;SDS011;2830;50.656;7.568;2024-01-15T13:30:02;9.65;;;4.57;;
5616;SDS011;2830;50.656;7.568;2024-01-15T13:32:30;7.50;;;3.95;;
5616;SDS011;2830;50.656;7.568;2024-01-15T13:34:57;6.20;;;3.40;;
5616;SDS011;2830;50.656;7.568;2024-01-15T13:37:24;8.13;;;4.10;;
5616;SDS011;2830;50.656;7.568;2024-01-15T13:39:51;9.27;;;4.85;;
5616;SDS011;2830;50.656;7.568;2024-01-15T13:42:20;7.40;;;4.68;;
5616;SDS011;2830;50.656;7.568;2024-01-15T13:44:50;6.28;;;4.13;;
5616;SDS011;2830;50.656;7.568;2024-01-15T13:47:17;9.32;;;5.50;;
5616;SDS011;2830;50.656;7.568;2024-01-15T13:49:44;4.47;;;3.63;;
5616;SDS011;2830;50.656;7.568;2024-01-15T13:52:11;6.78;;;4.45;;
5616;SDS011;2830;50.656;7.568;2024-01-15T13:54:39;9.18;;;4.15;;
5616;SDS011;2830;50.656;7.568;2024-01-15T13:57:16;6.38;;;3.63;;
5616;SDS011;2830;50.656;7.568;2024-01-15T13:59:44;8.23;;;4.35;;
5616;SDS011;2830;50.656;7.568;2024-01-15T14:02:14;8.13;;;3.85;;
5616;SDS011;2830;50.656;7.568;2024-01-15T14:04:46;8.80;;;3.50;;
5616;SDS011;2830;50.656;7.568;2024-01-15T14:07:14;7.13;;;5.22;;
5616;SDS011;2830;50.656;7.568;2024-01-15T14:09:42;8.80;;;5.50;;
5616;SDS011;2830;50.656;7.568;2024-01-15T14:12:09;11.30;;;6.85;;
5616;SDS011;2830;50.656;7.568;2024-01-15T14:14:35;19.45;;;9.82;;
5616;SDS011;2830;50.656;7.568;2024-01-15T14:17:02;12.10;;;7.15;;
5616;SDS011;2830;50.656;7.568;2024-01-15T14:19:30;12.52;;;4.72;;
5616;SDS011;2830;50.656;7.568;2024-01-15T14:21:57;5.05;;;2.72;;
5616;SDS011;2830;50.656;7.568;2024-01-15T14:24:24;6.20;;;4.28;;
5616;SDS011;2830;50.656;7.568;2024-01-15T14:26:51;5.80;;;3.10;;
5616;SDS011;2830;50.656;7.568;2024-01-15T14:29:18;6.85;;;3.83;;
5616;SDS011;2830;50.656;7.568;2024-01-15T14:31:47;3.65;;;3.00;;
5616;SDS011;2830;50.656;7.568;2024-01-15T14:34:14;8.95;;;2.90;;
5616;SDS011;2830;50.656;7.568;2024-01-15T14:36:41;6.05;;;3.67;;
5616;SDS011;2830;50.656;7.568;2024-01-15T14:39:08;4.45;;;3.25;;
5616;SDS011;2830;50.656;7.568;2024-01-15T14:41:38;5.70;;;2.60;;
5616;SDS011;2830;50.656;7.568;2024-01-15T14:44:05;7.00;;;2.53;;
5616;SDS011;2830;50.656;7.568;2024-01-15T14:46:32;5.90;;;3.25;;
5616;SDS011;2830;50.656;7.568;2024-01-15T14:48:59;4.22;;;3.05;;
5616;SDS011;2830;50.656;7.568;2024-01-15T14:51:26;5.63;;;3.20;;
5616;SDS011;2830;50.656;7.568;2024-01-15T14:53:53;4.93;;;2.60;;
5616;SDS011;2830;50.656;7.568;2024-01-15T14:56:21;4.28;;;1.88;;
5616;SDS011;2830;50.656;7.568;2024-01-15T14:58:48;8.35;;;4.50;;
5616;SDS011;2830;50.656;7.568;2024-01-15T15:01:15;9.43;;;4.22;;
5616;SDS011;2830;50.656;7.568;2024-01-15T15:03:42;4.50;;;3.55;;
5616;SDS011;2830;50.656;7.568;2024-01-15T15:06:10;5.45;;;2.83;;
5616;SDS011;2830;50.656;7.568;2024-01-15T15:08:39;8.88;;;3.22;;
5616;SDS011;2830;50.656;7.568;2024-01-15T15:11:06;7.20;;;3.70;;
5616;SDS011;2830;50.656;7.568;2024-01-15T15:13:33;6.30;;;3.55;;
5616;SDS011;2830;50.656;7.568;2024-01-15T15:16:11;5.55;;;2.67;;